createdAt,value
2018-12-24T00:01:04.528Z,97.80
2018-12-24T00:03:34.073Z,97.80
2018-12-24T00:06:03.666Z,97.70
2018-12-24T00:08:33.285Z,97.40
2018-12-24T00:11:05.485Z,97.60
2018-12-24T00:13:35.029Z,97.60
2018-12-24T00:16:04.654Z,97.80
2018-12-24T00:18:34.246Z,97.80
2018-12-24T00:21:03.808Z,98.20
2018-12-24T00:23:33.378Z,97.90
2018-12-24T00:26:03.053Z,98.00
2018-12-24T00:28:32.596Z,98.00
2018-12-24T00:31:02.182Z,97.90
2018-12-24T00:33:31.734Z,97.90
2018-12-24T00:36:02.937Z,97.90
2018-12-24T00:38:32.754Z,98.00
2018-12-24T00:41:02.332Z,98.20
2018-12-24T00:43:31.933Z,98.10
2018-12-24T00:46:01.770Z,98.00
2018-12-24T00:48:31.320Z,97.80
2018-12-24T00:51:00.940Z,98.20
2018-12-24T00:53:30.833Z,98.10
2018-12-24T00:56:00.390Z,98.20
2018-12-24T00:58:29.938Z,98.10
2018-12-24T01:00:59.762Z,98.30
2018-12-24T01:03:29.408Z,98.00
2018-12-24T01:05:58.954Z,98.20
2018-12-24T01:08:28.533Z,98.00
2018-12-24T01:10:58.189Z,98.20
2018-12-24T01:13:27.757Z,98.50
2018-12-24T01:15:57.512Z,98.30
2018-12-24T01:18:27.066Z,98.30
2018-12-24T01:20:56.886Z,98.50
2018-12-24T01:23:26.472Z,98.20
2018-12-24T01:25:56.106Z,98.60
2018-12-24T01:28:25.651Z,98.30
2018-12-24T01:30:55.518Z,98.20
2018-12-24T01:33:25.081Z,98.30
2018-12-24T01:35:54.606Z,98.40
2018-12-24T01:38:24.227Z,98.50
2018-12-24T01:40:53.782Z,98.50
2018-12-24T01:43:23.368Z,98.30
2018-12-24T01:45:52.942Z,98.10
2018-12-24T01:48:22.789Z,97.90
2018-12-24T01:50:52.362Z,97.70
2018-12-24T01:53:21.948Z,98.30
2018-12-24T01:55:51.840Z,98.60
2018-12-24T01:58:21.413Z,97.90
2018-12-24T02:00:50.958Z,98.00
2018-12-24T02:03:20.567Z,98.40
2018-12-24T02:05:50.283Z,98.10
2018-12-24T02:08:20.106Z,97.80
2018-12-24T02:10:49.661Z,98.00
2018-12-24T02:13:19.222Z,97.20
2018-12-24T02:15:48.818Z,97.30
2018-12-24T02:18:18.357Z,97.10
2018-12-24T02:20:47.902Z,96.70
2018-12-24T02:23:17.461Z,96.60
2018-12-24T02:25:47.374Z,96.60
2018-12-24T02:28:16.992Z,96.50
2018-12-24T02:30:46.539Z,96.60
2018-12-24T02:33:16.105Z,96.60
2018-12-24T02:35:45.725Z,96.50
2018-12-24T02:38:15.272Z,96.80
2018-12-24T02:40:45.045Z,96.50
2018-12-24T02:43:14.687Z,96.60
2018-12-24T02:45:44.227Z,96.40
2018-12-24T02:48:13.995Z,96.40
2018-12-24T02:50:43.527Z,96.40
2018-12-24T02:53:13.083Z,96.60
2018-12-24T02:55:42.665Z,96.80
2018-12-24T02:58:12.218Z,96.70
2018-12-24T03:00:41.751Z,96.50
2018-12-24T03:03:11.418Z,96.50
2018-12-24T03:05:40.962Z,96.10
2018-12-24T03:08:10.507Z,96.30
2018-12-24T03:10:40.172Z,96.50
2018-12-24T03:13:09.922Z,96.40
2018-12-24T03:15:39.463Z,96.50
2018-12-24T03:18:09.039Z,96.60
2018-12-24T03:20:38.754Z,96.60
2018-12-24T03:23:08.343Z,96.60
2018-12-24T03:25:37.893Z,96.40
2018-12-24T03:28:07.442Z,96.70
2018-12-24T03:30:37.001Z,96.70
2018-12-24T03:33:06.796Z,96.40
2018-12-24T03:35:36.339Z,96.70
2018-12-24T03:38:05.890Z,96.80
2018-12-24T03:40:35.483Z,97.00
2018-12-24T03:43:12.482Z,97.00
2018-12-24T03:45:36.333Z,96.90
2018-12-24T03:48:05.907Z,96.80
2018-12-24T03:50:35.461Z,96.80
2018-12-24T03:53:05.034Z,96.70
2018-12-24T03:55:34.589Z,97.00
2018-12-24T03:58:04.128Z,96.80
2018-12-24T04:00:33.962Z,96.90
2018-12-24T04:03:03.566Z,97.00
2018-12-24T04:05:33.102Z,97.20
2018-12-24T04:08:02.895Z,97.10
2018-12-24T04:10:32.438Z,97.50
2018-12-24T04:13:01.995Z,97.20
2018-12-24T04:15:31.616Z,97.40
2018-12-24T04:18:01.188Z,97.40
2018-12-24T04:20:30.745Z,97.40
2018-12-24T04:23:00.294Z,97.40
2018-12-24T04:25:29.898Z,98.00
2018-12-24T04:27:59.529Z,97.80
2018-12-24T04:30:29.168Z,97.60
2018-12-24T04:32:59.018Z,97.70
2018-12-24T04:35:28.574Z,97.70
2018-12-24T04:37:58.143Z,97.70
2018-12-24T04:40:27.825Z,97.70
2018-12-24T04:42:57.438Z,97.70
2018-12-24T04:45:27.021Z,97.60
2018-12-24T04:47:56.897Z,97.70
2018-12-24T04:50:26.449Z,98.00
2018-12-24T04:52:56.008Z,97.80
2018-12-24T04:55:25.585Z,97.80
2018-12-24T04:57:55.133Z,98.00
2018-12-24T05:00:24.688Z,97.70
2018-12-24T05:02:54.367Z,97.80
2018-12-24T05:05:23.994Z,97.80
2018-12-24T05:07:53.539Z,97.60
2018-12-24T05:10:23.102Z,97.80
2018-12-24T05:12:52.730Z,97.60
2018-12-24T05:15:22.290Z,97.80
2018-12-24T05:17:51.977Z,97.80
2018-12-24T05:20:21.602Z,97.60
2018-12-24T05:22:51.234Z,97.90
2018-12-24T05:25:21.074Z,97.90
2018-12-24T05:27:50.637Z,97.80
2018-12-24T05:30:20.177Z,97.80
2018-12-24T05:32:50.011Z,97.80
2018-12-24T05:35:19.563Z,97.70
2018-12-24T05:37:49.114Z,97.70
2018-12-24T05:40:18.700Z,97.70
2018-12-24T05:42:48.577Z,97.60
2018-12-24T05:45:18.115Z,97.50
2018-12-24T05:47:47.670Z,97.40
2018-12-24T05:50:17.278Z,97.20
2018-12-24T05:52:46.910Z,97.20
2018-12-24T05:55:16.514Z,97.50
2018-12-24T05:57:46.070Z,97.50
2018-12-24T06:00:15.598Z,97.10
2018-12-24T06:02:45.160Z,97.10
2018-12-24T06:05:14.702Z,97.30
2018-12-24T06:07:44.253Z,97.20
2018-12-24T06:10:13.856Z,97.30
2018-12-24T06:12:43.394Z,96.80
2018-12-24T06:15:13.034Z,96.60
2018-12-24T06:17:42.614Z,96.60
2018-12-24T06:20:12.166Z,96.40
2018-12-24T06:22:41.702Z,96.00
2018-12-24T06:25:11.551Z,96.20
2018-12-24T06:27:41.091Z,96.20
2018-12-24T06:30:10.621Z,96.20
2018-12-24T06:32:40.390Z,96.40
2018-12-24T06:35:09.995Z,96.20
2018-12-24T06:37:39.539Z,96.10
2018-12-24T06:40:09.113Z,96.10
2018-12-24T06:42:38.661Z,96.10
2018-12-24T06:45:08.214Z,96.10
2018-12-24T06:47:38.159Z,96.00
2018-12-24T06:50:07.849Z,96.20
2018-12-24T06:52:37.427Z,95.80
2018-12-24T06:55:06.998Z,95.90
2018-12-24T06:57:36.542Z,96.20
2018-12-24T07:00:06.359Z,96.00
2018-12-24T07:02:35.903Z,96.00
2018-12-24T07:05:05.532Z,96.10
2018-12-24T07:07:35.137Z,95.80
2018-12-24T07:10:04.862Z,95.90
2018-12-24T07:12:34.406Z,95.90
2018-12-24T07:15:04.303Z,95.40
2018-12-24T07:17:33.894Z,94.80
2018-12-24T07:20:03.434Z,94.30
2018-12-24T07:22:32.999Z,94.60
2018-12-24T07:25:02.630Z,94.70
2018-12-24T07:27:32.258Z,94.60
2018-12-24T07:30:01.847Z,93.70
2018-12-24T07:32:31.418Z,93.60
2018-12-24T07:35:01.033Z,93.90
2018-12-24T07:37:30.610Z,94.30
2018-12-24T07:40:00.183Z,94.90
2018-12-24T07:42:29.757Z,94.40
2018-12-24T07:44:59.314Z,94.20
2018-12-24T07:47:28.954Z,94.40
2018-12-24T07:49:58.853Z,95.00
2018-12-24T07:52:28.417Z,95.30
2018-12-24T07:54:57.954Z,94.90
2018-12-24T07:57:27.502Z,94.50
2018-12-24T07:59:57.078Z,94.60
2018-12-24T08:02:26.714Z,94.90
2018-12-24T08:04:56.348Z,95.20
2018-12-24T08:07:25.938Z,95.10
2018-12-24T08:09:55.573Z,95.20
2018-12-24T08:12:25.149Z,95.50
2018-12-24T08:14:54.725Z,95.00
2018-12-24T08:17:24.620Z,94.80
2018-12-24T08:19:54.166Z,94.50
2018-12-24T08:22:23.727Z,94.70
2018-12-24T08:24:53.263Z,94.90
2018-12-24T08:27:22.810Z,95.10
2018-12-24T08:29:52.386Z,95.10
2018-12-24T08:32:21.977Z,95.20
2018-12-24T08:34:51.516Z,95.50
2018-12-24T08:37:21.069Z,95.30
2018-12-24T08:39:50.982Z,95.60
2018-12-24T08:42:20.519Z,94.70
2018-12-24T08:44:50.138Z,94.30
2018-12-24T08:47:19.742Z,93.70
2018-12-24T08:49:51.550Z,93.70
2018-12-24T08:52:21.125Z,94.20
2018-12-24T08:54:50.725Z,93.40
2018-12-24T08:57:20.355Z,92.90
2018-12-24T08:59:49.902Z,93.30
2018-12-24T09:02:19.474Z,92.70
2018-12-24T09:05:30.233Z,92.60
2018-12-24T09:07:59.414Z,93.10
2018-12-24T09:10:28.533Z,93.50
2018-12-24T09:12:58.005Z,93.10
2018-12-24T09:15:27.137Z,92.90
2018-12-24T09:17:56.257Z,93.20
2018-12-24T09:20:25.407Z,93.00
2018-12-24T09:22:54.502Z,93.20
2018-12-24T09:25:23.684Z,93.20
2018-12-24T09:27:52.818Z,93.50
2018-12-24T09:30:22.914Z,93.90
2018-12-24T09:32:52.054Z,94.00
2018-12-24T09:35:21.193Z,93.90
2018-12-24T09:37:50.377Z,94.10
2018-12-24T09:40:19.598Z,95.10
2018-12-24T09:42:48.710Z,96.10
2018-12-24T09:45:17.837Z,96.40
2018-12-24T09:47:46.969Z,96.30
2018-12-24T09:50:16.086Z,96.50
2018-12-24T09:52:45.263Z,95.90
2018-12-24T09:55:14.384Z,96.40
2018-12-24T09:57:43.499Z,97.30
2018-12-24T10:00:15.925Z,98.50
2018-12-24T10:02:51.349Z,97.10
2018-12-24T10:05:23.520Z,97.60
2018-12-24T10:07:52.921Z,96.90
2018-12-24T10:10:22.066Z,95.90
2018-12-24T10:12:51.229Z,95.40
2018-12-24T10:15:20.417Z,94.60
2018-12-24T10:17:49.561Z,94.00
2018-12-24T10:20:18.689Z,93.80
2018-12-24T10:22:47.881Z,93.50
2018-12-24T10:25:17.379Z,93.00
2018-12-24T10:27:46.481Z,92.60
2018-12-24T10:30:15.598Z,93.10
2018-12-24T10:32:44.968Z,93.00
2018-12-24T10:35:14.141Z,92.40
2018-12-24T10:37:43.293Z,92.60
2018-12-24T10:40:15.169Z,92.00
2018-12-24T10:42:44.486Z,91.70
2018-12-24T10:45:16.685Z,91.60
2018-12-24T10:47:44.485Z,91.20
2018-12-24T10:50:13.598Z,90.80
2018-12-24T10:52:42.727Z,90.00
2018-12-24T10:55:11.950Z,90.20
2018-12-24T10:57:41.113Z,89.80
2018-12-24T11:00:11.457Z,89.90
2018-12-24T11:02:40.645Z,90.00
2018-12-24T11:05:09.762Z,89.30
2018-12-24T11:07:38.879Z,88.00
2018-12-24T11:10:11.113Z,88.90
2018-12-24T11:12:40.381Z,89.80
2018-12-24T11:15:11.629Z,89.80
2018-12-24T11:17:40.750Z,88.90
2018-12-24T11:20:09.892Z,88.50
2018-12-24T11:22:39.033Z,88.00
2018-12-24T11:25:08.141Z,89.20
2018-12-24T11:27:37.249Z,88.50
2018-12-24T11:30:07.124Z,86.80
2018-12-24T11:32:36.301Z,86.80
2018-12-24T11:35:05.601Z,86.60
2018-12-24T11:37:34.752Z,86.90
2018-12-24T11:40:03.981Z,87.70
2018-12-24T11:42:33.383Z,87.40
2018-12-24T11:45:02.581Z,86.90
2018-12-24T11:47:31.709Z,87.40
2018-12-24T11:50:00.954Z,87.60
2018-12-24T11:52:30.085Z,88.00
2018-12-24T11:54:59.218Z,87.40
2018-12-24T11:57:28.379Z,88.30
2018-12-24T11:59:57.478Z,88.60
2018-12-24T12:02:26.586Z,86.90
2018-12-24T12:04:55.994Z,87.50
2018-12-24T12:07:25.129Z,87.30
2018-12-24T12:09:54.326Z,87.90
2018-12-24T12:12:23.470Z,87.10
2018-12-24T12:14:52.590Z,86.00
2018-12-24T12:17:21.805Z,86.20
2018-12-24T12:19:50.941Z,86.90
2018-12-24T12:22:21.551Z,86.80
2018-12-24T12:24:50.808Z,87.60
2018-12-24T12:27:20.257Z,87.00
2018-12-24T12:29:49.450Z,87.00
2018-12-24T12:32:18.629Z,85.40
2018-12-24T12:34:47.769Z,83.20
2018-12-24T12:37:16.891Z,83.40
2018-12-24T12:39:46.217Z,82.10
2018-12-24T12:42:15.349Z,84.00
2018-12-24T12:44:44.458Z,82.80
2018-12-24T12:47:13.621Z,82.10
2018-12-24T12:49:42.758Z,82.10
2018-12-24T12:52:11.890Z,80.70
2018-12-24T12:54:41.025Z,81.00
2018-12-24T12:57:10.576Z,81.60
2018-12-24T12:59:39.727Z,80.50
2018-12-24T13:02:08.897Z,81.50
2018-12-24T13:04:38.053Z,80.00
2018-12-24T13:07:07.186Z,79.50
2018-12-24T13:09:36.319Z,78.90
2018-12-24T13:12:05.533Z,79.40
2018-12-24T13:14:34.705Z,81.40
2018-12-24T13:17:03.876Z,81.20
2018-12-24T13:19:33.041Z,80.40
2018-12-24T13:22:04.476Z,79.70
2018-12-24T13:24:33.354Z,79.90
2018-12-24T13:27:02.550Z,80.00
2018-12-24T13:29:31.778Z,81.20
2018-12-24T13:32:01.250Z,79.10
2018-12-24T13:34:30.385Z,79.10
2018-12-24T13:36:59.493Z,80.10
2018-12-24T13:39:28.953Z,80.60
2018-12-24T13:41:58.064Z,81.10
2018-12-24T13:44:27.285Z,80.60
2018-12-24T13:46:56.666Z,81.20
2018-12-24T13:49:25.890Z,81.20
2018-12-24T13:51:55.010Z,82.30
2018-12-24T13:54:24.140Z,83.30
2018-12-24T13:56:53.274Z,83.50
2018-12-24T13:59:23.515Z,83.40
2018-12-24T14:01:53.210Z,84.10
2018-12-24T14:04:22.378Z,83.00
2018-12-24T14:06:51.606Z,83.00
2018-12-24T14:09:20.831Z,81.80
2018-12-24T14:11:49.942Z,82.10
2018-12-24T14:14:19.077Z,81.50
2018-12-24T14:16:48.221Z,81.70
2018-12-24T14:19:17.350Z,81.80
2018-12-24T14:21:46.477Z,80.80
2018-12-24T14:24:15.806Z,81.50
2018-12-24T14:26:44.946Z,82.30
2018-12-24T14:29:14.066Z,81.80
2018-12-24T14:31:43.197Z,80.50
2018-12-24T14:34:12.337Z,82.00
2018-12-24T14:36:41.739Z,81.50
2018-12-24T14:39:10.853Z,82.20
2018-12-24T14:41:39.964Z,82.60
2018-12-24T14:44:09.376Z,82.30
2018-12-24T14:46:38.525Z,83.20
2018-12-24T14:49:07.667Z,83.10
2018-12-24T14:51:36.846Z,83.80
2018-12-24T14:54:06.050Z,83.70
2018-12-24T14:56:35.181Z,83.10
2018-12-24T14:59:04.310Z,83.40
2018-12-24T15:01:33.523Z,83.30
2018-12-24T15:04:02.778Z,83.80
2018-12-24T15:06:31.909Z,83.90
2018-12-24T15:09:01.137Z,84.40
2018-12-24T15:11:30.336Z,84.70
2018-12-24T15:13:59.522Z,84.90
2018-12-24T15:16:33.972Z,85.80
2018-12-24T15:18:59.962Z,86.40
2018-12-24T15:21:29.074Z,87.00
2018-12-24T15:23:58.531Z,87.50
2018-12-24T15:26:27.741Z,88.00
2018-12-24T15:28:56.837Z,88.60
2018-12-24T15:31:26.068Z,89.10
2018-12-24T15:33:55.226Z,88.80
2018-12-24T15:36:24.361Z,88.70
2018-12-24T15:38:53.474Z,89.30
2018-12-24T15:41:22.627Z,89.30
2018-12-24T15:43:51.758Z,88.50
2018-12-24T15:46:23.885Z,87.20
2018-12-24T15:48:53.044Z,87.50
2018-12-24T15:51:22.170Z,87.70
2018-12-24T15:53:51.293Z,88.10
2018-12-24T15:56:20.438Z,87.10
2018-12-24T15:58:49.544Z,86.00
2018-12-24T16:01:18.649Z,86.30
2018-12-24T16:03:47.774Z,85.70
2018-12-24T16:06:16.898Z,86.00
2018-12-24T16:08:46.294Z,85.10
2018-12-24T16:11:15.413Z,85.00
2018-12-24T16:13:44.529Z,85.00
2018-12-24T16:16:13.681Z,84.80
2018-12-24T16:18:42.869Z,84.60
2018-12-24T16:21:11.985Z,84.90
2018-12-24T16:23:41.433Z,85.70
2018-12-24T16:26:10.565Z,85.50
2018-12-24T16:28:39.764Z,86.10
2018-12-24T16:31:08.891Z,87.20
2018-12-24T16:33:38.341Z,85.90
2018-12-24T16:36:07.454Z,86.10
2018-12-24T16:38:36.582Z,86.20
2018-12-24T16:41:05.941Z,86.20
2018-12-24T16:43:35.057Z,86.90
2018-12-24T16:46:04.185Z,86.90
2018-12-24T16:48:33.316Z,87.10
2018-12-24T16:51:03.766Z,86.90
2018-12-24T16:53:40.315Z,86.00
2018-12-24T16:56:03.825Z,86.40
2018-12-24T16:58:32.953Z,86.40
2018-12-24T17:01:02.330Z,87.20
2018-12-24T17:03:31.573Z,87.00
2018-12-24T17:06:00.694Z,87.30
2018-12-24T17:08:30.073Z,87.40
2018-12-24T17:10:59.197Z,87.70
2018-12-24T17:13:28.324Z,87.70
2018-12-24T17:15:57.645Z,87.90
2018-12-24T17:18:26.784Z,88.00
2018-12-24T17:20:55.896Z,88.00
2018-12-24T17:23:25.045Z,87.60
2018-12-24T17:25:54.273Z,88.00
2018-12-24T17:28:23.391Z,87.50
2018-12-24T17:30:52.813Z,88.70
2018-12-24T17:33:21.937Z,89.10
2018-12-24T17:35:51.073Z,88.80
2018-12-24T17:38:20.197Z,88.50
2018-12-24T17:40:49.671Z,87.90
2018-12-24T17:43:18.817Z,88.10
2018-12-24T17:45:47.975Z,88.30
2018-12-24T17:48:17.382Z,88.50
2018-12-24T17:50:46.505Z,87.50
2018-12-24T17:53:15.630Z,87.70
2018-12-24T17:55:44.837Z,86.80
2018-12-24T17:58:13.957Z,87.20
2018-12-24T18:00:43.062Z,87.10
2018-12-24T18:03:12.493Z,88.00
2018-12-24T18:05:41.617Z,87.90
2018-12-24T18:08:10.751Z,87.80
2018-12-24T18:10:39.898Z,88.00
2018-12-24T18:13:09.037Z,88.10
2018-12-24T18:15:38.145Z,88.30
2018-12-24T18:18:07.294Z,88.30
2018-12-24T18:20:36.422Z,88.20
2018-12-24T18:23:05.549Z,87.30
2018-12-24T18:25:34.669Z,88.10
2018-12-24T18:28:03.878Z,88.80
2018-12-24T18:30:33.045Z,88.20
2018-12-24T18:33:02.165Z,88.40
2018-12-24T18:35:31.289Z,88.30
2018-12-24T18:38:00.409Z,88.20
2018-12-24T18:40:29.588Z,88.20
2018-12-24T18:42:58.749Z,88.20
2018-12-24T18:45:27.898Z,88.30
2018-12-24T18:47:57.245Z,88.20
2018-12-24T18:50:26.360Z,88.70
2018-12-24T18:52:55.469Z,90.90
2018-12-24T18:55:24.693Z,91.70
2018-12-24T18:57:53.813Z,92.60
2018-12-24T19:00:22.929Z,92.90
2018-12-24T19:02:52.325Z,93.10
2018-12-24T19:05:21.449Z,92.60
2018-12-24T19:07:50.558Z,92.40
2018-12-24T19:10:19.690Z,92.40
2018-12-24T19:12:48.804Z,91.90
2018-12-24T19:15:18.244Z,91.90
2018-12-24T19:17:47.357Z,92.10
2018-12-24T19:20:16.477Z,92.70
2018-12-24T19:22:45.597Z,93.90
2018-12-24T19:25:14.741Z,93.80
2018-12-24T19:27:43.921Z,93.80
2018-12-24T19:30:13.043Z,93.70
2018-12-24T19:32:42.192Z,94.80
2018-12-24T19:35:11.326Z,95.50
2018-12-24T19:37:40.461Z,95.60
2018-12-24T19:40:09.826Z,96.50
2018-12-24T19:42:38.945Z,96.80
2018-12-24T19:45:08.072Z,96.60
2018-12-24T19:47:37.217Z,97.70
2018-12-24T19:50:06.333Z,97.20
2018-12-24T19:52:35.462Z,97.40
2018-12-24T19:55:04.893Z,96.40
2018-12-24T19:57:34.076Z,97.40
2018-12-24T20:00:03.306Z,96.90
2018-12-24T20:02:32.646Z,96.60
2018-12-24T20:05:01.761Z,95.70
2018-12-24T20:07:30.977Z,95.10
2018-12-24T20:10:00.107Z,94.80
2018-12-24T20:12:29.529Z,94.50
2018-12-24T20:14:58.645Z,95.10
2018-12-24T20:17:27.765Z,95.40
2018-12-24T20:19:56.871Z,93.80
2018-12-24T20:22:26.049Z,94.10
2018-12-24T20:24:55.198Z,93.80
2018-12-24T20:27:24.337Z,94.60
2018-12-24T20:29:53.485Z,95.00
2018-12-24T20:32:22.593Z,95.50
2018-12-24T20:34:51.804Z,94.90
2018-12-24T20:37:21.046Z,94.50
2018-12-24T20:39:50.161Z,93.80
2018-12-24T20:42:19.378Z,93.90
2018-12-24T20:44:48.525Z,93.70
2018-12-24T20:47:17.725Z,93.80
2018-12-24T20:49:47.184Z,93.20
2018-12-24T20:52:16.400Z,93.10
2018-12-24T20:54:45.514Z,93.10
2018-12-24T20:57:14.758Z,92.50
2018-12-24T20:59:43.895Z,92.50
2018-12-24T21:02:13.293Z,92.50
2018-12-24T21:04:42.411Z,91.90
2018-12-24T21:07:11.537Z,91.90
2018-12-24T21:09:40.653Z,91.90
2018-12-24T21:12:09.862Z,92.00
2018-12-24T21:14:39.101Z,92.30
2018-12-24T21:17:08.257Z,92.30
2018-12-24T21:19:37.526Z,92.00
2018-12-24T21:22:06.740Z,92.00
2018-12-24T21:24:35.985Z,91.80
2018-12-24T21:27:05.421Z,92.20
2018-12-24T21:29:34.600Z,91.80
2018-12-24T21:32:03.773Z,91.80
2018-12-24T21:34:33.197Z,92.00
2018-12-24T21:37:02.328Z,91.80
2018-12-24T21:39:31.485Z,91.40
2018-12-24T21:42:00.714Z,91.30
2018-12-24T21:44:29.866Z,90.70
2018-12-24T21:46:59.339Z,90.40
2018-12-24T21:49:28.479Z,90.80
2018-12-24T21:51:57.701Z,90.50
2018-12-24T21:54:26.850Z,90.50
2018-12-24T21:56:56.153Z,90.60
2018-12-24T21:59:25.288Z,90.20
2018-12-24T22:01:54.611Z,90.70
2018-12-24T22:04:23.726Z,90.70
2018-12-24T22:06:52.845Z,90.90
2018-12-24T22:09:21.989Z,91.40
2018-12-24T22:11:51.118Z,91.70
2018-12-24T22:14:20.300Z,91.70
2018-12-24T22:16:49.530Z,91.80
2018-12-24T22:19:18.721Z,91.00
2018-12-24T22:21:47.991Z,91.10
2018-12-24T22:24:17.358Z,91.80
2018-12-24T22:26:46.469Z,92.40
2018-12-24T22:29:15.710Z,93.30
2018-12-24T22:31:44.899Z,93.30
2018-12-24T22:34:14.054Z,92.60
2018-12-24T22:36:43.158Z,92.50
2018-12-24T22:39:12.298Z,92.30
2018-12-24T22:41:41.413Z,92.00
2018-12-24T22:44:10.638Z,91.10
2018-12-24T22:46:39.826Z,91.30
2018-12-24T22:49:09.153Z,90.40
2018-12-24T22:51:38.286Z,90.20
2018-12-24T22:54:07.421Z,89.40
2018-12-24T22:56:36.561Z,89.50
2018-12-24T22:59:05.682Z,89.70
2018-12-24T23:01:34.905Z,88.40
2018-12-24T23:04:04.013Z,87.90
2018-12-24T23:06:33.126Z,87.70
2018-12-24T23:09:02.338Z,87.30
2018-12-24T23:11:31.682Z,86.70
2018-12-24T23:14:00.817Z,85.90
2018-12-24T23:16:29.961Z,85.40
2018-12-24T23:18:59.385Z,83.60
2018-12-24T23:21:28.501Z,83.50
2018-12-24T23:23:57.709Z,83.20
2018-12-24T23:26:26.915Z,83.40
2018-12-24T23:28:56.053Z,83.20
2018-12-24T23:31:25.174Z,83.50
2018-12-24T23:33:54.328Z,83.60
2018-12-24T23:36:23.451Z,83.80
2018-12-24T23:38:52.567Z,82.70
2018-12-24T23:41:21.714Z,83.10
2018-12-24T23:43:50.821Z,83.40
2018-12-24T23:46:20.005Z,83.90
2018-12-24T23:48:57.533Z,84.10
2018-12-24T23:51:20.249Z,84.60
2018-12-24T23:53:49.415Z,85.40
2018-12-24T23:56:18.584Z,84.60
2018-12-24T23:58:47.830Z,84.10
